createdAt,value
2018-05-21T00:00:58.696Z,4.47
2018-05-21T00:03:25.606Z,3.70
2018-05-21T00:05:52.366Z,3.97
2018-05-21T00:08:19.192Z,4.07
2018-05-21T00:10:45.984Z,4.27
2018-05-21T00:13:12.734Z,3.73
2018-05-21T00:15:39.528Z,3.60
2018-05-21T00:18:06.282Z,4.00
2018-05-21T00:20:33.145Z,3.63
2018-05-21T00:22:59.943Z,3.97
2018-05-21T00:25:27.328Z,4.67
2018-05-21T00:27:54.372Z,3.80
2018-05-21T00:30:21.307Z,4.13
2018-05-21T00:32:48.066Z,3.47
2018-05-21T00:35:14.849Z,3.83
2018-05-21T00:37:41.632Z,4.00
2018-05-21T00:40:08.438Z,4.23
2018-05-21T00:42:35.176Z,3.97
2018-05-21T00:45:01.985Z,3.93
2018-05-21T00:47:28.737Z,4.30
2018-05-21T00:49:55.613Z,4.27
2018-05-21T00:52:23.418Z,4.33
2018-05-21T00:54:56.027Z,4.23
2018-05-21T00:57:22.841Z,4.53
2018-05-21T00:59:49.637Z,4.50
2018-05-21T01:02:16.550Z,4.30
2018-05-21T01:04:43.346Z,4.87
2018-05-21T01:07:10.225Z,4.63
2018-05-21T01:09:37.031Z,4.20
2018-05-21T01:12:03.890Z,4.33
2018-05-21T01:14:30.679Z,5.43
2018-05-21T01:16:57.499Z,4.03
2018-05-21T01:19:24.281Z,4.73
2018-05-21T01:21:51.131Z,4.80
2018-05-21T01:24:17.945Z,4.60
2018-05-21T01:26:44.810Z,4.70
2018-05-21T01:29:11.630Z,5.00
2018-05-21T01:31:38.439Z,4.30
2018-05-21T01:34:05.270Z,5.20
2018-05-21T01:36:32.730Z,4.80
2018-05-21T01:38:59.548Z,4.63
2018-05-21T01:41:26.330Z,4.23
2018-05-21T01:43:53.109Z,5.27
2018-05-21T01:46:19.921Z,5.07
2018-05-21T01:48:46.721Z,4.50
2018-05-21T01:51:13.531Z,5.13
2018-05-21T01:53:40.315Z,4.90
2018-05-21T01:56:07.097Z,4.80
2018-05-21T01:58:33.869Z,5.40
2018-05-21T02:01:00.644Z,5.50
2018-05-21T02:03:27.455Z,5.03
2018-05-21T02:05:54.253Z,4.63
2018-05-21T02:08:21.121Z,5.40
2018-05-21T02:10:47.843Z,5.20
2018-05-21T02:13:14.617Z,5.20
2018-05-21T02:15:41.397Z,4.80
2018-05-21T02:18:08.228Z,5.30
2018-05-21T02:20:35.947Z,5.23
2018-05-21T02:23:02.717Z,5.50
2018-05-21T02:25:29.488Z,5.63
2018-05-21T02:27:56.297Z,5.50
2018-05-21T02:30:23.127Z,5.30
2018-05-21T02:32:49.895Z,5.60
2018-05-21T02:35:16.668Z,5.43
2018-05-21T02:37:43.460Z,5.10
2018-05-21T02:40:10.237Z,5.30
2018-05-21T02:42:37.409Z,5.70
2018-05-21T02:45:04.176Z,5.97
2018-05-21T02:47:30.959Z,5.83
2018-05-21T02:49:57.737Z,5.30
2018-05-21T02:52:24.564Z,5.87
2018-05-21T02:54:51.363Z,6.03
2018-05-21T02:57:18.115Z,6.70
2018-05-21T02:59:44.873Z,5.77
2018-05-21T03:02:11.666Z,5.97
2018-05-21T03:04:38.466Z,5.77
2018-05-21T03:07:05.256Z,5.20
2018-05-21T03:09:32.086Z,5.50
2018-05-21T03:11:58.897Z,6.33
2018-05-21T03:14:25.720Z,6.07
2018-05-21T03:16:52.905Z,5.83
2018-05-21T03:19:19.720Z,6.70
2018-05-21T03:21:46.493Z,5.93
2018-05-21T03:24:13.262Z,6.07
2018-05-21T03:26:40.122Z,6.17
2018-05-21T03:29:06.912Z,5.60
2018-05-21T03:31:34.620Z,5.90
2018-05-21T03:34:01.425Z,5.73
2018-05-21T03:36:29.657Z,6.53
2018-05-21T03:38:56.467Z,6.63
2018-05-21T03:41:23.273Z,6.30
2018-05-21T03:43:50.042Z,6.60
2018-05-21T03:46:16.820Z,6.80
2018-05-21T03:48:43.608Z,6.17
2018-05-21T03:51:10.417Z,6.37
2018-05-21T03:53:37.247Z,5.87
2018-05-21T03:56:04.025Z,5.67
2018-05-21T03:58:36.601Z,5.40
2018-05-21T04:01:09.361Z,5.60
2018-05-21T04:03:42.031Z,5.47
2018-05-21T04:06:08.831Z,5.70
2018-05-21T04:08:35.636Z,5.33
2018-05-21T04:11:02.467Z,5.40
2018-05-21T04:13:29.265Z,9.00
2018-05-21T04:15:56.059Z,5.70
2018-05-21T04:18:22.818Z,5.60
2018-05-21T04:20:49.618Z,5.97
2018-05-21T04:23:16.428Z,5.93
2018-05-21T04:25:43.394Z,5.87
2018-05-21T04:28:10.168Z,6.13
2018-05-21T04:30:36.970Z,6.50
2018-05-21T04:33:03.750Z,6.10
2018-05-21T04:35:30.584Z,6.50
2018-05-21T04:37:57.665Z,6.63
2018-05-21T04:40:24.506Z,6.67
2018-05-21T04:42:51.305Z,6.10
2018-05-21T04:45:18.068Z,5.50
2018-05-21T04:47:44.813Z,6.10
2018-05-21T04:50:11.663Z,6.63
2018-05-21T04:52:38.502Z,6.30
2018-05-21T04:55:05.261Z,6.47
2018-05-21T04:57:32.178Z,6.03
2018-05-21T04:59:58.937Z,6.73
2018-05-21T05:02:25.697Z,6.30
2018-05-21T05:04:52.710Z,6.57
2018-05-21T05:07:19.510Z,6.15
2018-05-21T05:09:46.316Z,6.60
2018-05-21T05:12:22.460Z,6.15
2018-05-21T05:14:49.206Z,5.87
2018-05-21T05:17:15.960Z,6.40
2018-05-21T05:19:42.790Z,6.30
2018-05-21T05:22:09.586Z,6.47
2018-05-21T05:24:36.447Z,6.65
2018-05-21T05:27:03.197Z,6.47
2018-05-21T05:29:29.978Z,6.25
2018-05-21T05:31:56.771Z,6.62
2018-05-21T05:34:23.529Z,6.10
2018-05-21T05:36:50.338Z,6.53
2018-05-21T05:39:17.157Z,6.32
2018-05-21T05:41:43.933Z,7.00
2018-05-21T05:44:10.744Z,6.45
2018-05-21T05:46:37.489Z,6.65
2018-05-21T05:49:04.840Z,7.00
2018-05-21T05:51:32.384Z,6.55
2018-05-21T05:53:59.148Z,6.07
2018-05-21T05:56:25.909Z,7.07
2018-05-21T05:58:52.744Z,7.10
2018-05-21T06:01:19.573Z,7.68
2018-05-21T06:03:46.338Z,6.72
2018-05-21T06:06:13.085Z,6.07
2018-05-21T06:08:39.836Z,6.00
2018-05-21T06:11:07.057Z,5.68
2018-05-21T06:13:34.153Z,5.68
2018-05-21T06:16:00.915Z,5.53
2018-05-21T06:18:27.675Z,5.47
2018-05-21T06:20:54.429Z,4.55
2018-05-21T06:23:21.235Z,5.65
2018-05-21T06:25:48.012Z,5.05
2018-05-21T06:28:14.846Z,5.15
2018-05-21T06:30:41.671Z,4.95
2018-05-21T06:33:08.484Z,5.18
2018-05-21T06:35:35.351Z,4.80
2018-05-21T06:38:02.169Z,4.85
2018-05-21T06:40:28.949Z,4.60
2018-05-21T06:42:56.210Z,5.30
2018-05-21T06:45:23.043Z,4.85
2018-05-21T06:47:49.936Z,5.12
2018-05-21T06:50:16.805Z,5.10
2018-05-21T06:52:43.606Z,4.10
2018-05-21T06:55:10.410Z,4.00
2018-05-21T06:57:37.169Z,3.83
2018-05-21T07:00:03.929Z,4.60
2018-05-21T07:02:30.684Z,4.60
2018-05-21T07:04:57.422Z,5.13
2018-05-21T07:07:24.178Z,4.87
2018-05-21T07:09:50.968Z,5.27
2018-05-21T07:12:17.729Z,4.03
2018-05-21T07:14:44.468Z,4.33
2018-05-21T07:17:11.217Z,3.97
2018-05-21T07:19:37.965Z,5.87
2018-05-21T07:22:04.752Z,11.60
2018-05-21T07:24:31.578Z,9.07
2018-05-21T07:26:58.307Z,4.23
2018-05-21T07:29:25.938Z,3.83
2018-05-21T07:31:52.684Z,8.30
2018-05-21T07:34:19.480Z,5.13
2018-05-21T07:36:46.224Z,3.40
2018-05-21T07:39:12.962Z,3.80
2018-05-21T07:41:39.743Z,3.47
2018-05-21T07:44:10.785Z,3.67
2018-05-21T07:46:37.578Z,3.50
2018-05-21T07:49:04.318Z,3.63
2018-05-21T07:51:31.116Z,4.53
2018-05-21T07:53:57.856Z,3.70
2018-05-21T07:56:24.625Z,3.13
2018-05-21T07:58:51.371Z,3.10
2018-05-21T08:01:18.129Z,3.10
2018-05-21T08:03:45.073Z,3.30
2018-05-21T08:06:11.831Z,2.80
2018-05-21T08:08:38.664Z,2.90
2018-05-21T08:11:05.489Z,3.03
2018-05-21T08:13:32.252Z,3.17
2018-05-21T08:15:59.088Z,3.00
2018-05-21T08:18:25.848Z,2.33
2018-05-21T08:20:52.609Z,2.73
2018-05-21T08:23:19.372Z,2.23
2018-05-21T08:25:46.597Z,2.57
2018-05-21T08:28:13.337Z,2.50
2018-05-21T08:30:40.105Z,2.50
2018-05-21T08:33:06.893Z,2.50
2018-05-21T08:35:34.490Z,2.63
2018-05-21T08:38:01.291Z,2.37
2018-05-21T08:40:28.054Z,2.13
2018-05-21T08:42:54.803Z,2.63
2018-05-21T08:45:21.589Z,2.10
2018-05-21T08:47:48.403Z,2.20
2018-05-21T08:50:15.158Z,2.00
2018-05-21T08:52:41.951Z,2.20
2018-05-21T08:55:08.760Z,2.80
2018-05-21T08:57:35.710Z,2.53
2018-05-21T09:00:02.559Z,2.70
2018-05-21T09:02:29.428Z,2.30
2018-05-21T09:04:56.293Z,3.50
2018-05-21T09:07:23.225Z,2.30
2018-05-21T09:09:50.228Z,2.70
2018-05-21T09:12:17.294Z,2.77
2018-05-21T09:14:44.197Z,2.50
2018-05-21T09:17:11.198Z,2.43
2018-05-21T09:19:38.488Z,2.40
2018-05-21T09:22:05.325Z,1.90
2018-05-21T09:24:32.281Z,2.23
2018-05-21T09:26:59.390Z,2.50
2018-05-21T09:29:26.313Z,2.37
2018-05-21T09:31:53.410Z,7.50
2018-05-21T09:34:20.286Z,8.87
2018-05-21T09:36:47.207Z,4.13
2018-05-21T09:39:14.255Z,2.60
2018-05-21T09:41:41.119Z,2.60
2018-05-21T09:44:07.961Z,2.20
2018-05-21T09:46:34.850Z,3.73
2018-05-21T09:49:01.743Z,2.80
2018-05-21T09:51:28.613Z,3.00
2018-05-21T09:53:55.685Z,3.03
2018-05-21T09:56:22.578Z,2.33
2018-05-21T09:58:49.452Z,2.90
2018-05-21T10:01:16.377Z,2.70
2018-05-21T10:03:43.240Z,2.70
2018-05-21T10:06:10.112Z,3.30
2018-05-21T10:08:37.227Z,2.50
2018-05-21T10:11:04.313Z,2.63
2018-05-21T10:13:31.220Z,2.60
2018-05-21T10:15:58.169Z,3.03
2018-05-21T10:18:25.090Z,2.87
2018-05-21T10:20:52.559Z,2.60
2018-05-21T10:23:19.547Z,2.30
2018-05-21T10:25:46.432Z,2.70
2018-05-21T10:28:13.274Z,2.37
2018-05-21T10:30:40.166Z,2.90
2018-05-21T10:33:08.407Z,2.50
2018-05-21T10:35:35.426Z,2.80
2018-05-21T10:38:02.322Z,2.10
2018-05-21T10:40:29.274Z,2.27
2018-05-21T10:42:56.118Z,2.57
2018-05-21T10:45:23.043Z,2.50
2018-05-21T10:47:50.460Z,2.97
2018-05-21T10:50:18.142Z,2.10
2018-05-21T10:52:46.048Z,2.33
2018-05-21T10:55:13.050Z,2.70
2018-05-21T10:57:39.926Z,2.47
2018-05-21T11:00:06.969Z,2.73
2018-05-21T11:02:33.986Z,2.20
2018-05-21T11:05:01.643Z,2.10
2018-05-21T11:07:28.570Z,2.50
2018-05-21T11:09:55.429Z,2.20
2018-05-21T11:12:22.262Z,2.60
2018-05-21T11:14:49.109Z,2.43
2018-05-21T11:17:15.961Z,2.53
2018-05-21T11:19:42.838Z,2.43
2018-05-21T11:22:09.742Z,2.40
2018-05-21T11:24:36.737Z,2.60
2018-05-21T11:27:03.573Z,2.27
2018-05-21T11:29:30.547Z,2.07
2018-05-21T11:31:57.500Z,2.27
2018-05-21T11:34:24.336Z,2.60
2018-05-21T11:36:51.222Z,2.27
2018-05-21T11:39:18.087Z,2.20
2018-05-21T11:41:44.958Z,2.60
2018-05-21T11:44:11.965Z,2.67
2018-05-21T11:46:38.911Z,2.33
2018-05-21T11:49:05.847Z,2.83
2018-05-21T11:51:32.983Z,2.63
2018-05-21T11:53:59.885Z,2.67
2018-05-21T11:56:26.830Z,2.70
2018-05-21T11:58:53.809Z,2.40
2018-05-21T12:01:20.617Z,2.17
2018-05-21T12:03:47.569Z,2.33
2018-05-21T12:06:14.450Z,2.20
2018-05-21T12:08:41.491Z,2.67
2018-05-21T12:11:08.477Z,3.10
2018-05-21T12:13:35.628Z,2.90
2018-05-21T12:16:02.485Z,3.27
2018-05-21T12:18:29.468Z,3.00
2018-05-21T12:20:56.444Z,2.60
2018-05-21T12:23:23.320Z,2.87
2018-05-21T12:25:50.269Z,3.53
2018-05-21T12:28:17.457Z,2.63
2018-05-21T12:30:44.341Z,3.00
2018-05-21T12:33:11.219Z,2.80
2018-05-21T12:35:38.191Z,2.53
2018-05-21T12:38:05.344Z,3.20
2018-05-21T12:40:32.324Z,2.43
2018-05-21T12:42:59.243Z,3.03
2018-05-21T12:45:26.150Z,2.87
2018-05-21T12:47:53.118Z,2.93
2018-05-21T12:50:20.023Z,3.13
2018-05-21T12:52:46.964Z,2.53
2018-05-21T12:55:14.031Z,2.47
2018-05-21T12:57:40.839Z,2.57
2018-05-21T13:00:07.763Z,2.67
2018-05-21T13:02:34.755Z,2.50
2018-05-21T13:05:01.808Z,2.27
2018-05-21T13:07:28.727Z,2.60
2018-05-21T13:09:55.711Z,2.50
2018-05-21T13:12:22.564Z,2.40
2018-05-21T13:14:49.510Z,2.40
2018-05-21T13:17:16.728Z,2.67
2018-05-21T13:19:43.672Z,2.37
2018-05-21T13:22:10.719Z,2.70
2018-05-21T13:24:37.743Z,2.70
2018-05-21T13:27:04.739Z,2.43
2018-05-21T13:29:31.689Z,2.40
2018-05-21T13:31:58.649Z,2.23
2018-05-21T13:34:25.515Z,2.37
2018-05-21T13:36:52.325Z,2.37
2018-05-21T13:39:19.237Z,3.57
2018-05-21T13:41:46.143Z,2.53
2018-05-21T13:44:13.153Z,2.93
2018-05-21T13:46:39.970Z,2.77
2018-05-21T13:49:06.837Z,2.97
2018-05-21T13:51:33.676Z,2.57
2018-05-21T13:54:00.635Z,2.23
2018-05-21T13:56:27.537Z,2.60
2018-05-21T13:58:54.420Z,3.50
2018-05-21T14:01:21.297Z,3.13
2018-05-21T14:03:48.237Z,3.27
2018-05-21T14:06:15.315Z,3.13
2018-05-21T14:08:42.999Z,2.67
2018-05-21T14:11:09.884Z,3.00
2018-05-21T14:13:37.005Z,2.23
2018-05-21T14:16:03.940Z,2.67
2018-05-21T14:18:30.942Z,3.33
2018-05-21T14:20:57.745Z,2.47
2018-05-21T14:23:24.571Z,2.90
2018-05-21T14:25:51.436Z,3.07
2018-05-21T14:28:18.253Z,2.60
2018-05-21T14:30:45.058Z,2.50
2018-05-21T14:33:11.917Z,2.53
2018-05-21T14:35:38.731Z,3.10
2018-05-21T14:38:06.417Z,3.07
2018-05-21T14:40:33.211Z,2.67
2018-05-21T14:43:00.136Z,2.50
2018-05-21T14:45:26.945Z,2.70
2018-05-21T14:47:53.745Z,2.37
2018-05-21T14:50:20.684Z,2.43
2018-05-21T14:52:47.609Z,2.60
2018-05-21T14:55:14.401Z,2.80
2018-05-21T14:57:41.197Z,2.57
2018-05-21T15:00:07.937Z,2.50
2018-05-21T15:02:34.752Z,2.80
2018-05-21T15:05:01.621Z,3.20
2018-05-21T15:07:28.455Z,4.10
2018-05-21T15:09:55.238Z,2.80
2018-05-21T15:12:22.022Z,2.50
2018-05-21T15:14:48.866Z,2.67
2018-05-21T15:17:15.765Z,2.77
2018-05-21T15:19:42.659Z,3.30
2018-05-21T15:22:09.613Z,2.97
2018-05-21T15:24:36.372Z,2.60
2018-05-21T15:27:03.220Z,2.70
2018-05-21T15:29:30.139Z,2.83
2018-05-21T15:31:56.992Z,3.00
2018-05-21T15:34:24.078Z,2.80
2018-05-21T15:36:50.982Z,2.33
2018-05-21T15:39:17.981Z,2.90
2018-05-21T15:41:44.869Z,2.50
2018-05-21T15:44:11.825Z,2.93
2018-05-21T15:46:38.753Z,2.50
2018-05-21T15:49:05.761Z,2.43
2018-05-21T15:51:33.393Z,2.70
2018-05-21T15:54:00.462Z,2.20
2018-05-21T15:56:27.356Z,2.70
2018-05-21T15:58:54.267Z,2.70
2018-05-21T16:01:22.914Z,2.60
2018-05-21T16:03:49.951Z,2.90
2018-05-21T16:06:17.104Z,3.30
2018-05-21T16:08:44.064Z,3.60
2018-05-21T16:11:13.022Z,4.33
2018-05-21T16:13:40.033Z,4.40
2018-05-21T16:16:06.963Z,3.27
2018-05-21T16:18:33.949Z,2.87
2018-05-21T16:21:02.749Z,3.03
2018-05-21T16:23:29.741Z,2.50
2018-05-21T16:25:56.855Z,3.00
2018-05-21T16:28:23.881Z,3.20
2018-05-21T16:30:50.834Z,2.53
2018-05-21T16:33:17.949Z,2.33
2018-05-21T16:35:45.394Z,2.97
2018-05-21T16:38:12.429Z,3.47
2018-05-21T16:40:55.510Z,2.97
2018-05-21T16:43:34.209Z,3.10
2018-05-21T16:46:01.280Z,3.40
2018-05-21T16:48:28.197Z,2.80
2018-05-21T16:50:55.034Z,3.20
2018-05-21T16:53:21.841Z,3.30
2018-05-21T16:55:56.632Z,2.50
2018-05-21T16:58:27.381Z,2.80
2018-05-21T17:00:54.273Z,2.27
2018-05-21T17:03:21.237Z,2.40
2018-05-21T17:05:50.865Z,2.70
2018-05-21T17:08:17.796Z,2.63
2018-05-21T17:10:44.691Z,3.77
2018-05-21T17:13:11.701Z,3.40
2018-05-21T17:15:38.564Z,3.47
2018-05-21T17:18:05.507Z,2.70
2018-05-21T17:20:32.284Z,2.73
2018-05-21T17:22:59.168Z,2.37
2018-05-21T17:25:25.998Z,2.50
2018-05-21T17:27:52.942Z,2.80
2018-05-21T17:30:19.823Z,2.60
2018-05-21T17:32:46.777Z,3.00
2018-05-21T17:35:13.772Z,3.30
2018-05-21T17:37:40.799Z,2.63
2018-05-21T17:40:07.728Z,2.97
2018-05-21T17:42:34.729Z,2.50
2018-05-21T17:45:01.641Z,2.83
2018-05-21T17:47:28.997Z,5.90
2018-05-21T17:49:56.502Z,5.90
2018-05-21T17:52:23.530Z,3.63
2018-05-21T17:54:50.413Z,7.43
2018-05-21T17:57:18.422Z,8.07
2018-05-21T17:59:45.413Z,3.80
2018-05-21T18:02:12.455Z,4.23
2018-05-21T18:04:39.369Z,3.30
2018-05-21T18:07:07.321Z,4.17
2018-05-21T18:09:34.197Z,2.63
2018-05-21T18:12:01.136Z,5.90
2018-05-21T18:14:28.069Z,2.97
2018-05-21T18:16:55.047Z,3.07
2018-05-21T18:19:22.019Z,3.13
2018-05-21T18:21:48.952Z,3.13
2018-05-21T18:24:22.238Z,3.40
2018-05-21T18:26:49.597Z,5.47
2018-05-21T18:29:16.510Z,3.30
2018-05-21T18:31:43.311Z,3.30
2018-05-21T18:34:10.142Z,5.73
2018-05-21T18:36:37.026Z,5.60
2018-05-21T18:39:04.094Z,3.83
2018-05-21T18:41:30.908Z,4.13
2018-05-21T18:43:57.866Z,4.47
2018-05-21T18:46:24.779Z,3.27
2018-05-21T18:48:53.099Z,3.90
2018-05-21T18:51:19.977Z,3.90
2018-05-21T18:53:46.835Z,4.83
2018-05-21T18:56:13.798Z,4.57
2018-05-21T18:58:40.727Z,5.47
2018-05-21T19:01:07.552Z,5.13
2018-05-21T19:03:34.412Z,4.83
2018-05-21T19:06:01.371Z,5.13
2018-05-21T19:08:28.186Z,5.33
2018-05-21T19:10:55.064Z,4.90
2018-05-21T19:13:22.095Z,3.43
2018-05-21T19:15:48.958Z,3.10
2018-05-21T19:18:15.892Z,3.00
2018-05-21T19:20:42.740Z,2.87
2018-05-21T19:23:09.577Z,3.23
2018-05-21T19:25:36.444Z,3.57
2018-05-21T19:28:03.376Z,10.37
2018-05-21T19:30:30.309Z,10.87
2018-05-21T19:32:57.220Z,13.57
2018-05-21T19:35:24.035Z,6.93
2018-05-21T19:37:50.958Z,4.43
2018-05-21T19:40:17.918Z,3.53
2018-05-21T19:42:44.794Z,3.53
2018-05-21T19:45:12.031Z,3.63
2018-05-21T19:47:40.285Z,4.07
2018-05-21T19:50:07.241Z,4.03
2018-05-21T19:52:52.121Z,3.50
2018-05-21T19:55:19.019Z,4.07
2018-05-21T19:57:48.079Z,3.83
2018-05-21T20:00:15.689Z,3.97
2018-05-21T20:02:43.773Z,5.00
2018-05-21T20:05:11.626Z,3.93
2018-05-21T20:07:38.528Z,3.37
2018-05-21T20:10:05.645Z,3.70
2018-05-21T20:12:32.653Z,3.50
2018-05-21T20:14:59.675Z,3.50
2018-05-21T20:17:28.277Z,3.13
2018-05-21T20:19:55.432Z,4.47
2018-05-21T20:22:23.235Z,6.43
2018-05-21T20:24:50.126Z,8.83
2018-05-21T20:27:17.088Z,5.30
2018-05-21T20:29:44.206Z,5.10
2018-05-21T20:32:11.403Z,4.03
2018-05-21T20:34:39.212Z,3.30
2018-05-21T20:37:06.059Z,3.57
2018-05-21T20:39:33.132Z,4.67
2018-05-21T20:42:00.706Z,4.40
2018-05-21T20:44:27.796Z,6.37
2018-05-21T20:46:54.697Z,7.00
2018-05-21T20:49:21.621Z,9.10
2018-05-21T20:51:48.669Z,5.30
2018-05-21T20:54:15.606Z,5.00
2018-05-21T20:56:50.907Z,4.37
2018-05-21T20:59:18.600Z,9.03
2018-05-21T21:01:46.473Z,6.70
2018-05-21T21:04:13.615Z,3.70
2018-05-21T21:06:40.493Z,3.90
2018-05-21T21:09:08.036Z,3.93
2018-05-21T21:11:34.907Z,3.90
2018-05-21T21:14:02.207Z,4.73
2018-05-21T21:16:31.357Z,4.10
2018-05-21T21:18:58.158Z,3.77
2018-05-21T21:21:25.704Z,4.07
2018-05-21T21:23:58.356Z,4.27
2018-05-21T21:26:34.194Z,3.83
2018-05-21T21:29:01.080Z,4.07
2018-05-21T21:31:29.548Z,3.97
2018-05-21T21:33:56.963Z,4.10
2018-05-21T21:36:23.846Z,3.83
2018-05-21T21:38:50.798Z,4.23
2018-05-21T21:41:17.647Z,4.93
2018-05-21T21:43:45.488Z,5.80
2018-05-21T21:46:13.265Z,6.97
2018-05-21T21:48:47.635Z,5.00
2018-05-21T21:51:14.519Z,4.70
2018-05-21T21:53:44.514Z,3.60
2018-05-21T21:56:11.449Z,3.33
2018-05-21T21:58:39.188Z,3.90
2018-05-21T22:01:07.811Z,4.80
2018-05-21T22:03:35.364Z,4.50
2018-05-21T22:06:03.107Z,4.43
2018-05-21T22:08:39.921Z,5.07
2018-05-21T22:11:06.736Z,6.47
2018-05-21T22:13:33.761Z,7.70
2018-05-21T22:16:02.582Z,6.83
2018-05-21T22:18:30.527Z,7.60
2018-05-21T22:20:57.366Z,5.40
2018-05-21T22:23:25.189Z,5.30
2018-05-21T22:25:52.153Z,7.40
2018-05-21T22:28:19.021Z,7.43
2018-05-21T22:30:46.038Z,7.63
2018-05-21T22:33:13.623Z,9.00
2018-05-21T22:35:40.710Z,10.50
2018-05-21T22:38:10.177Z,9.80
2018-05-21T22:40:37.073Z,8.63
2018-05-21T22:43:04.884Z,8.47
2018-05-21T22:45:34.669Z,7.70
2018-05-21T22:48:01.452Z,8.37
2018-05-21T22:50:28.293Z,8.43
2018-05-21T22:52:55.212Z,7.37
2018-05-21T22:55:22.167Z,8.33
2018-05-21T22:57:50.146Z,7.03
2018-05-21T23:00:16.996Z,8.03
2018-05-21T23:02:44.552Z,8.40
2018-05-21T23:05:11.381Z,9.53
2018-05-21T23:07:38.924Z,9.27
2018-05-21T23:10:06.405Z,8.73
2018-05-21T23:12:33.340Z,8.03
2018-05-21T23:15:01.257Z,7.60
2018-05-21T23:17:28.661Z,6.90
2018-05-21T23:19:55.921Z,6.03
2018-05-21T23:22:30.653Z,6.13
2018-05-21T23:24:57.501Z,5.23
2018-05-21T23:27:25.104Z,5.23
2018-05-21T23:30:02.719Z,5.20
2018-05-21T23:32:30.488Z,5.63
2018-05-21T23:34:57.337Z,4.63
2018-05-21T23:37:24.741Z,4.97
2018-05-21T23:39:51.603Z,4.83
2018-05-21T23:42:19.041Z,5.27
2018-05-21T23:44:46.008Z,4.67
2018-05-21T23:47:13.372Z,5.23
2018-05-21T23:49:40.221Z,4.77
2018-05-21T23:52:07.207Z,4.17
2018-05-21T23:54:34.068Z,4.70
2018-05-21T23:57:00.949Z,4.67
2018-05-21T23:59:28.149Z,4.87
